createdAt,value
2017-10-22T10:02:52.914Z,1003.66
2017-10-22T10:03:56.577Z,1003.74
2017-10-22T10:05:03.492Z,1003.77
2017-10-22T10:06:07.066Z,1003.75
2017-10-22T10:07:09.978Z,1003.75
2017-10-22T10:08:12.314Z,1003.63
2017-10-22T10:09:15.203Z,1003.62
2017-10-22T10:10:18.063Z,1003.62
2017-10-22T10:11:21.066Z,1003.54
2017-10-22T10:12:23.985Z,1003.59
2017-10-22T10:13:26.262Z,1003.53
2017-10-22T10:14:29.151Z,1003.64
2017-10-22T10:15:32.240Z,1003.53
2017-10-22T10:16:35.136Z,1003.38
2017-10-22T10:17:38.024Z,1003.44
2017-10-22T10:18:40.955Z,1003.52
2017-10-22T10:19:43.826Z,1003.49
2017-10-22T10:20:46.695Z,1003.44
2017-10-22T10:21:49.628Z,1003.38
2017-10-22T14:12:48.488Z,1002.56
2017-10-22T14:13:52.970Z,1002.61
2017-10-22T14:14:57.296Z,1002.61
2017-10-22T14:16:01.936Z,1002.61
2017-10-22T14:17:05.467Z,1002.59
2017-10-22T14:18:12.899Z,1002.59
2017-10-22T14:19:16.998Z,1002.61
2017-10-22T14:20:21.686Z,1002.62
2017-10-22T14:21:24.572Z,1002.61
2017-10-22T14:22:26.639Z,1002.63
2017-10-22T14:23:32.944Z,1002.66
2017-10-22T14:24:38.964Z,1002.65
2017-10-22T14:25:47.649Z,1002.62
2017-10-22T14:26:50.769Z,1002.63
2017-10-22T14:27:53.785Z,1002.63
2017-10-22T14:28:58.434Z,1002.62
2017-10-22T14:30:03.029Z,1002.68
2017-10-22T14:31:07.826Z,1002.69
2017-10-22T14:32:12.044Z,1002.75
2017-10-22T14:33:16.189Z,1002.75
2017-10-22T14:34:19.272Z,1002.74
2017-10-22T14:35:23.552Z,1002.77
2017-10-22T14:36:25.542Z,1002.89
2017-10-22T14:37:28.996Z,1002.92
2017-10-22T14:38:32.004Z,1002.84
2017-10-22T14:39:34.638Z,1002.82
2017-10-22T14:40:36.449Z,1002.83
2017-10-22T14:41:42.599Z,1002.81
2017-10-22T14:42:44.902Z,1002.84
2017-10-22T14:43:48.223Z,1002.87
2017-10-22T14:44:54.504Z,1002.90
2017-10-22T14:46:09.177Z,1002.91
2017-10-22T14:47:11.856Z,1002.90
2017-10-22T14:48:16.252Z,1002.88
2017-10-22T14:49:22.570Z,1002.95
2017-10-22T14:50:27.019Z,1002.95
2017-10-22T14:51:33.550Z,1002.92
2017-10-22T14:52:36.540Z,1002.95
2017-10-22T14:53:41.086Z,1002.96
2017-10-22T14:54:43.841Z,1002.97
2017-10-22T14:55:46.309Z,1002.95
2017-10-22T14:56:49.866Z,1002.97
2017-10-22T14:57:52.749Z,1002.99
2017-10-22T14:58:55.606Z,1003.05
2017-10-22T14:59:59.256Z,1003.03
2017-10-22T15:01:02.294Z,1002.99
2017-10-22T15:02:05.443Z,1003.00
2017-10-22T15:03:08.239Z,1002.98
2017-10-22T15:04:11.364Z,1002.98
2017-10-22T15:05:14.214Z,1002.98
2017-10-22T15:06:17.140Z,1003.00
2017-10-22T15:07:20.244Z,1002.95
2017-10-22T15:08:23.160Z,1002.99
2017-10-22T15:09:26.195Z,1003.01
2017-10-22T15:10:29.168Z,1003.03
2017-10-22T15:11:33.588Z,1003.00
2017-10-22T15:12:35.615Z,1002.98
2017-10-22T15:13:38.476Z,1003.02
2017-10-22T15:14:41.678Z,1002.97
2017-10-22T15:15:44.629Z,1002.97
2017-10-22T15:16:46.692Z,1003.02
2017-10-22T15:17:49.862Z,1003.01
2017-10-22T15:18:52.770Z,1003.00
2017-10-22T15:19:55.705Z,1002.99
2017-10-22T15:20:58.542Z,1002.97
2017-10-22T15:22:01.554Z,1003.00
2017-10-22T15:23:04.419Z,1003.01
2017-10-22T15:24:06.523Z,1003.01
2017-10-22T15:25:09.624Z,1003.01
2017-10-22T15:26:12.455Z,1003.02
2017-10-22T15:27:15.558Z,1003.05
2017-10-22T15:28:18.418Z,1003.03
2017-10-22T15:29:21.442Z,1003.11
2017-10-22T15:30:24.796Z,1003.08
2017-10-22T15:31:28.261Z,1003.09
2017-10-22T15:32:31.161Z,1003.09
2017-10-22T15:33:33.903Z,1003.11
2017-10-22T15:34:36.607Z,1003.10
2017-10-22T15:35:39.333Z,1003.18
2017-10-22T15:36:42.706Z,1003.16
2017-10-22T15:37:45.226Z,1003.19
2017-10-22T15:38:47.398Z,1003.15
2017-10-22T15:39:50.259Z,1003.14
2017-10-22T15:40:52.950Z,1003.12
2017-10-22T15:41:55.689Z,1003.16
2017-10-22T15:42:58.452Z,1003.13
2017-10-22T15:44:01.093Z,1003.13
2017-10-22T15:45:02.487Z,1003.19
2017-10-22T15:46:05.104Z,1003.21
2017-10-22T15:47:07.826Z,1003.20
2017-10-22T15:48:11.121Z,1003.23
2017-10-22T15:49:14.733Z,1003.23
2017-10-22T15:50:17.837Z,1003.19
2017-10-22T15:51:20.651Z,1003.22
2017-10-22T15:52:22.736Z,1003.17
2017-10-22T15:53:24.765Z,1003.23
2017-10-22T15:54:27.750Z,1003.22
